Time;durP1;ratioP1;P1;durP2;ratioP2;P2;SDS_P1;SDS_P2;PMS_P1;PMS_P2;Temp;Humidity;BMP_temperature;BMP_pressure;BME280_temperature;BME280_humidity;BME280_pressure;Samples;Min_cycle;Max_cycle;Signal;HPM_P1;HPM_P2
2023/04/23 00:00:13;;;;;;;6.77;6.10;;;15.50;99.90;;;;;;5001020;28;20463;-66
2023/04/23 00:02:41;;;;;;;7.10;6.40;;;15.50;99.90;;;;;;5002791;28;20203;-66
2023/04/23 00:05:07;;;;;;;11.67;7.13;;;15.40;99.90;;;;;;5002835;28;20494;-66
2023/04/23 00:07:33;;;;;;;7.77;6.20;;;15.40;99.90;;;;;;5003147;28;20900;-66
2023/04/23 00:10:02;;;;;;;8.50;6.90;;;15.40;99.90;;;;;;5002673;28;20483;-66
2023/04/23 00:12:28;;;;;;;7.73;7.00;;;15.30;99.90;;;;;;5000877;28;20446;-66
2023/04/23 00:14:54;;;;;;;6.93;6.33;;;15.20;99.90;;;;;;5002358;28;20944;-66
2023/04/23 00:17:20;;;;;;;8.70;7.80;;;15.10;99.90;;;;;;5002482;28;20840;-66
2023/04/23 00:19:46;;;;;;;8.60;7.80;;;15.10;99.90;;;;;;5003121;28;20511;-66
2023/04/23 00:22:12;;;;;;;10.37;8.20;;;15.10;99.90;;;;;;5001890;28;20653;-66
2023/04/23 00:24:38;;;;;;;10.23;9.13;;;15.10;99.90;;;;;;5002529;28;20799;-66
2023/04/23 00:27:05;;;;;;;9.73;8.00;;;15.00;99.90;;;;;;4998248;28;20525;-66
2023/04/23 00:29:31;;;;;;;10.90;8.70;;;15.00;99.90;;;;;;5002048;28;20468;-66
2023/04/23 00:31:56;;;;;;;10.30;8.60;;;15.00;99.90;;;;;;5004190;28;20593;-67
2023/04/23 00:34:22;;;;;;;11.10;8.10;;;15.10;99.90;;;;;;5005986;28;20264;-66
2023/04/23 00:36:47;;;;;;;11.23;8.53;;;15.10;99.90;;;;;;5003238;28;20903;-67
2023/04/23 00:39:13;;;;;;;9.27;7.80;;;15.10;99.90;;;;;;5005825;28;20228;-67
2023/04/23 00:41:40;;;;;;;13.07;9.63;;;15.00;99.90;;;;;;5006302;28;20773;-67
2023/04/23 00:44:06;;;;;;;14.53;8.50;;;14.90;99.90;;;;;;5005438;28;20235;-67
2023/04/23 00:46:32;;;;;;;10.53;9.43;;;15.00;99.90;;;;;;5003920;28;20911;-67
2023/04/23 00:48:59;;;;;;;12.57;8.73;;;14.90;99.90;;;;;;5004787;28;20331;-67
2023/04/23 00:51:25;;;;;;;10.93;9.00;;;14.90;99.90;;;;;;5003789;28;20291;-67
2023/04/23 00:53:51;;;;;;;17.53;9.53;;;14.90;99.90;;;;;;5005894;28;20495;-67
2023/04/23 00:56:17;;;;;;;11.30;8.97;;;15.00;99.90;;;;;;5005294;28;20416;-67
2023/04/23 00:58:43;;;;;;;10.03;8.77;;;15.00;99.90;;;;;;5005798;28;20191;-67
2023/04/23 01:01:08;;;;;;;10.47;9.00;;;14.90;99.90;;;;;;5005437;28;20467;-67
2023/04/23 01:03:36;;;;;;;8.90;7.83;;;15.00;99.90;;;;;;5006809;28;20984;-67
2023/04/23 01:06:03;;;;;;;10.20;8.63;;;15.00;99.90;;;;;;5001777;28;20212;-67
2023/04/23 01:08:30;;;;;;;9.87;8.10;;;14.90;99.90;;;;;;5004875;28;20475;-67
2023/04/23 01:10:57;;;;;;;11.90;8.13;;;14.90;99.90;;;;;;5005844;28;20475;-67
2023/04/23 01:13:25;;;;;;;10.13;8.37;;;14.90;99.90;;;;;;5006315;28;20432;-67
2023/04/23 01:15:51;;;;;;;8.47;7.47;;;14.80;99.90;;;;;;5004470;28;20919;-67
2023/04/23 01:18:18;;;;;;;9.40;8.00;;;14.90;99.90;;;;;;5003051;28;20432;-67
2023/04/23 01:20:44;;;;;;;8.60;7.40;;;14.80;99.90;;;;;;5004922;28;20426;-67
2023/04/23 01:23:10;;;;;;;9.40;7.80;;;14.80;99.90;;;;;;5003213;28;20448;-67
2023/04/23 01:25:36;;;;;;;8.93;8.03;;;14.70;99.90;;;;;;5004254;28;20181;-66
2023/04/23 01:28:03;;;;;;;9.03;7.20;;;14.60;99.90;;;;;;5005803;28;21337;-66
2023/04/23 01:30:29;;;;;;;9.27;7.60;;;14.60;99.90;;;;;;5002366;28;20212;-67
2023/04/23 01:32:55;;;;;;;8.33;6.73;;;14.70;99.90;;;;;;5004849;28;20494;-67
2023/04/23 01:35:22;;;;;;;8.20;6.80;;;14.70;99.90;;;;;;5003177;28;20510;-67
2023/04/23 01:37:50;;;;;;;12.07;6.93;;;14.70;99.90;;;;;;5006468;28;20453;-67
2023/04/23 01:40:16;;;;;;;7.93;6.33;;;14.70;99.90;;;;;;5004725;28;20479;-67
2023/04/23 01:42:42;;;;;;;7.57;6.77;;;14.70;99.90;;;;;;5005692;28;20775;-67
2023/04/23 01:45:08;;;;;;;8.40;6.30;;;14.60;99.90;;;;;;5003734;28;20193;-67
2023/04/23 01:47:34;;;;;;;8.47;6.27;;;14.60;99.90;;;;;;5005581;28;20239;-67
2023/04/23 01:50:00;;;;;;;8.03;6.33;;;14.60;99.90;;;;;;5005070;28;20479;-67
2023/04/23 01:52:25;;;;;;;7.37;6.03;;;14.50;99.90;;;;;;5002007;28;20787;-67
2023/04/23 01:54:51;;;;;;;7.57;6.60;;;14.50;99.90;;;;;;5005298;28;20177;-66
2023/04/23 01:57:23;;;;;;;7.00;5.70;;;14.60;99.90;;;;;;5004098;28;20627;-66
2023/04/23 01:59:49;;;;;;;10.07;6.83;;;14.60;99.90;;;;;;5003657;28;20191;-66
2023/04/23 02:02:15;;;;;;;8.50;6.00;;;14.50;99.90;;;;;;5002481;28;20490;-66
2023/04/23 02:04:44;;;;;;;8.70;6.57;;;14.50;99.90;;;;;;4998774;28;20959;-66
2023/04/23 02:07:10;;;;;;;10.00;6.53;;;14.40;99.90;;;;;;5001127;28;20173;-66
2023/04/23 02:09:35;;;;;;;8.37;6.47;;;14.40;99.90;;;;;;5004175;28;20571;-66
2023/04/23 02:12:01;;;;;;;6.10;5.50;;;14.40;99.90;;;;;;5003905;28;20554;-66
2023/04/23 02:14:27;;;;;;;8.80;5.57;;;14.50;99.90;;;;;;5004345;28;20193;-66
2023/04/23 02:16:53;;;;;;;6.10;5.03;;;14.50;99.90;;;;;;5003792;28;20192;-66
2023/04/23 02:19:18;;;;;;;7.70;6.40;;;14.60;99.90;;;;;;5003672;28;20827;-66
2023/04/23 02:21:44;;;;;;;6.60;5.73;;;14.50;99.90;;;;;;5002870;28;20205;-66
2023/04/23 02:24:10;;;;;;;6.10;5.50;;;14.50;99.90;;;;;;5003907;28;20178;-66
2023/04/23 02:26:35;;;;;;;6.90;5.43;;;14.60;99.90;;;;;;5000993;28;20192;-67
2023/04/23 02:29:01;;;;;;;8.00;5.30;;;14.40;99.90;;;;;;5002764;28;20217;-66
2023/04/23 02:31:26;;;;;;;6.47;5.03;;;14.40;99.90;;;;;;4998876;28;20211;-66
2023/04/23 02:33:52;;;;;;;10.77;6.07;;;14.50;99.90;;;;;;5003128;28;20188;-67
2023/04/23 02:36:17;;;;;;;5.73;4.70;;;14.50;99.90;;;;;;5016361;28;20185;-66
2023/04/23 02:38:44;;;;;;;6.37;5.77;;;14.50;99.90;;;;;;5002056;28;20255;-66
2023/04/23 02:41:11;;;;;;;5.57;5.03;;;14.60;99.90;;;;;;5003138;28;20292;-66
2023/04/23 02:43:36;;;;;;;5.67;5.07;;;14.50;99.90;;;;;;5004377;28;20432;-67
2023/04/23 02:46:06;;;;;;;6.33;5.20;;;14.50;99.90;;;;;;5003185;28;20448;-66
2023/04/23 02:48:37;;;;;;;5.60;5.10;;;14.50;99.90;;;;;;5004802;28;20662;-69
2023/04/23 02:51:04;;;;;;;6.67;6.07;;;14.60;99.90;;;;;;5003483;28;20466;-66
2023/04/23 02:53:29;;;;;;;6.37;5.40;;;14.60;99.90;;;;;;5002490;28;20566;-66
2023/04/23 02:55:55;;;;;;;8.03;5.20;;;14.50;99.90;;;;;;5003470;28;20489;-66
2023/04/23 02:58:21;;;;;;;8.23;5.40;;;14.60;99.90;;;;;;5003590;28;20193;-66
2023/04/23 03:00:46;;;;;;;7.90;5.37;;;14.60;99.90;;;;;;5004138;28;20231;-66
2023/04/23 03:03:12;;;;;;;6.60;5.97;;;14.70;99.90;;;;;;5002549;28;20189;-66
2023/04/23 03:05:38;;;;;;;8.30;5.60;;;14.70;99.90;;;;;;5004053;28;20205;-66
2023/04/23 03:08:03;;;;;;;9.97;6.20;;;14.50;99.90;;;;;;5004497;28;20277;-66
2023/04/23 03:10:29;;;;;;;7.20;5.90;;;14.40;99.90;;;;;;5003657;28;20554;-66
2023/04/23 03:12:55;;;;;;;7.93;5.20;;;14.50;99.90;;;;;;5016898;28;20192;-66
2023/04/23 03:15:21;;;;;;;5.93;5.33;;;14.50;99.90;;;;;;5002857;28;20185;-66
2023/04/23 03:17:46;;;;;;;6.30;5.20;;;14.50;99.90;;;;;;5003120;28;21005;-66
2023/04/23 03:20:13;;;;;;;6.27;5.67;;;14.60;99.90;;;;;;5003184;28;20300;-66
2023/04/23 03:22:39;;;;;;;6.03;5.37;;;14.60;99.90;;;;;;5000694;28;20735;-66
2023/04/23 03:25:05;;;;;;;5.93;5.30;;;14.50;99.90;;;;;;5004548;28;20470;-66
2023/04/23 03:27:31;;;;;;;11.00;5.83;;;14.50;99.90;;;;;;5003259;28;20205;-66
2023/04/23 03:29:56;;;;;;;6.63;5.50;;;14.50;99.90;;;;;;5001369;28;20508;-66
2023/04/23 03:32:23;;;;;;;7.60;4.80;;;14.50;99.90;;;;;;5002407;28;20181;-67
2023/04/23 03:34:48;;;;;;;6.60;5.10;;;14.60;99.90;;;;;;5002114;28;20204;-67
2023/04/23 03:37:14;;;;;;;7.63;5.60;;;14.60;99.90;;;;;;4997801;28;20479;-66
2023/04/23 03:39:39;;;;;;;5.80;5.27;;;14.60;99.90;;;;;;5003550;28;20189;-67
2023/04/23 03:42:05;;;;;;;7.07;5.90;;;14.50;99.90;;;;;;5003459;28;20193;-67
2023/04/23 03:44:30;;;;;;;8.10;6.00;;;14.40;99.90;;;;;;5002947;28;20557;-67
2023/04/23 03:46:56;;;;;;;5.67;5.17;;;14.40;99.90;;;;;;5004328;28;20219;-67
2023/04/23 03:49:21;;;;;;;6.30;5.00;;;14.40;99.90;;;;;;5003664;28;20215;-67
2023/04/23 03:51:47;;;;;;;8.33;5.27;;;14.30;99.90;;;;;;5002652;28;20205;-67
2023/04/23 03:54:13;;;;;;;6.10;4.10;;;14.40;99.90;;;;;;5000343;28;20204;-67
2023/04/23 03:56:38;;;;;;;6.70;4.30;;;14.30;99.90;;;;;;5003487;28;20184;-67
2023/04/23 03:59:04;;;;;;;4.47;4.00;;;14.30;99.90;;;;;;5001338;28;20185;-67
2023/04/23 04:01:31;;;;;;;9.70;4.83;;;14.30;99.90;;;;;;5003136;28;20209;-67
2023/04/23 04:03:57;;;;;;;5.70;4.53;;;14.20;99.90;;;;;;5000456;28;20585;-67
2023/04/23 04:06:23;;;;;;;5.60;4.30;;;14.20;99.90;;;;;;5001930;28;20554;-66
2023/04/23 04:08:48;;;;;;;7.30;4.60;;;14.10;99.90;;;;;;5002473;28;20578;-66
2023/04/23 04:11:14;;;;;;;5.43;4.63;;;14.00;99.90;;;;;;5000142;28;20284;-66
2023/04/23 04:13:40;;;;;;;6.23;4.90;;;14.10;99.90;;;;;;5000188;28;20192;-67
2023/04/23 04:16:05;;;;;;;4.83;4.30;;;14.00;99.90;;;;;;5001625;28;20582;-66
2023/04/23 04:18:31;;;;;;;4.73;4.33;;;14.00;99.90;;;;;;5003073;28;21478;-66
2023/04/23 04:20:56;;;;;;;5.70;4.43;;;14.00;99.90;;;;;;5001586;28;21721;-66
2023/04/23 04:23:22;;;;;;;4.73;4.23;;;14.10;99.90;;;;;;5001362;28;20181;-66
2023/04/23 04:25:49;;;;;;;4.73;4.30;;;14.00;99.90;;;;;;5001257;28;20196;-66
2023/04/23 04:28:15;;;;;;;5.53;4.20;;;14.00;99.90;;;;;;4999302;28;20739;-66
2023/04/23 04:30:41;;;;;;;5.17;4.67;;;14.10;99.90;;;;;;5003437;28;20568;-67
2023/04/23 04:33:07;;;;;;;7.10;5.17;;;14.10;99.90;;;;;;5003618;28;20268;-66
2023/04/23 04:35:33;;;;;;;5.30;4.80;;;14.10;99.90;;;;;;4997855;28;20192;-67
2023/04/23 04:37:59;;;;;;;6.77;6.07;;;14.10;99.90;;;;;;4999227;28;20813;-66
2023/04/23 04:40:25;;;;;;;7.13;6.47;;;14.10;99.90;;;;;;5002266;28;20747;-66
2023/04/23 04:42:51;;;;;;;8.80;6.53;;;14.20;99.90;;;;;;5000972;28;20185;-66
2023/04/23 04:45:17;;;;;;;8.97;8.07;;;14.10;99.90;;;;;;5001834;28;20966;-66
2023/04/23 04:47:42;;;;;;;10.03;6.20;;;14.10;99.90;;;;;;5000234;28;20564;-67
2023/04/23 04:50:09;;;;;;;8.30;7.33;;;14.10;99.90;;;;;;5003859;28;20263;-67
2023/04/23 04:52:35;;;;;;;7.67;6.97;;;14.20;99.90;;;;;;5001768;28;20178;-67
2023/04/23 04:55:00;;;;;;;7.30;6.60;;;14.10;99.90;;;;;;5001905;28;20445;-67
2023/04/23 04:57:26;;;;;;;8.63;6.53;;;14.10;99.90;;;;;;5001554;28;20803;-67
2023/04/23 04:59:52;;;;;;;8.07;7.27;;;14.10;99.90;;;;;;5003076;28;20204;-67
2023/04/23 05:02:20;;;;;;;8.60;7.30;;;14.20;99.90;;;;;;5000757;28;20182;-67
2023/04/23 05:04:45;;;;;;;9.83;7.40;;;14.20;99.90;;;;;;5001900;28;20753;-67
2023/04/23 05:07:11;;;;;;;7.90;6.23;;;14.30;99.90;;;;;;5003454;28;20425;-67
2023/04/23 05:09:36;;;;;;;8.10;6.93;;;14.20;99.90;;;;;;4998888;28;20300;-67
2023/04/23 05:12:02;;;;;;;8.80;7.60;;;14.20;99.90;;;;;;5000645;28;20201;-67
2023/04/23 05:14:28;;;;;;;9.13;8.23;;;14.20;99.90;;;;;;5000983;28;20268;-67
2023/04/23 05:16:54;;;;;;;13.00;7.90;;;14.30;99.90;;;;;;4999237;28;20356;-67
2023/04/23 05:19:19;;;;;;;8.07;7.27;;;14.30;99.90;;;;;;5005456;28;20440;-67
2023/04/23 05:21:45;;;;;;;8.00;7.20;;;14.30;99.90;;;;;;5005533;28;20725;-67
2023/04/23 05:24:10;;;;;;;7.53;6.47;;;14.40;99.90;;;;;;5004852;28;20585;-67
2023/04/23 05:26:37;;;;;;;8.27;7.00;;;14.40;99.90;;;;;;5004839;28;20577;-67
2023/04/23 05:29:03;;;;;;;8.17;6.77;;;14.40;99.90;;;;;;5004725;28;20205;-67
2023/04/23 05:31:28;;;;;;;7.70;6.90;;;14.40;99.90;;;;;;5005062;28;20456;-67
2023/04/23 05:33:54;;;;;;;14.57;7.40;;;14.30;99.90;;;;;;5003918;28;20447;-67
2023/04/23 05:36:19;;;;;;;7.67;6.43;;;14.40;99.90;;;;;;5002653;28;20217;-67
2023/04/23 05:38:46;;;;;;;7.83;6.87;;;14.30;99.90;;;;;;5005399;28;20181;-67
2023/04/23 05:41:11;;;;;;;6.80;5.90;;;14.30;99.90;;;;;;5005369;28;20224;-67
2023/04/23 05:43:37;;;;;;;7.30;5.67;;;14.20;99.90;;;;;;5004163;28;20894;-67
2023/04/23 05:46:06;;;;;;;7.67;6.13;;;14.20;99.90;;;;;;5004904;28;20256;-67
2023/04/23 05:48:32;;;;;;;8.70;6.73;;;14.30;99.90;;;;;;5004486;28;20193;-67
2023/04/23 05:50:58;;;;;;;9.77;6.40;;;14.30;99.90;;;;;;5003645;28;20688;-67
2023/04/23 05:53:23;;;;;;;6.97;6.30;;;14.40;99.90;;;;;;5001829;28;20435;-67
2023/04/23 05:55:49;;;;;;;6.43;5.20;;;14.40;99.90;;;;;;5002778;28;20181;-67
2023/04/23 05:58:16;;;;;;;7.23;6.53;;;14.50;99.90;;;;;;5004667;28;20574;-67
2023/04/23 06:00:41;;;;;;;8.40;6.40;;;14.50;99.90;;;;;;5003175;28;20229;-65
2023/04/23 06:03:07;;;;;;;7.70;5.73;;;14.60;99.90;;;;;;5003936;28;20480;-67
2023/04/23 06:05:32;;;;;;;7.47;6.53;;;14.60;99.90;;;;;;5002530;28;20186;-67
2023/04/23 06:07:58;;;;;;;5.63;5.00;;;14.70;99.90;;;;;;5001060;28;20273;-67
2023/04/23 06:10:23;;;;;;;6.13;5.23;;;14.70;99.90;;;;;;5001204;28;20593;-67
2023/04/23 06:12:49;;;;;;;7.63;6.10;;;14.80;99.90;;;;;;5004348;28;20177;-67
2023/04/23 06:15:15;;;;;;;6.77;5.37;;;14.80;99.90;;;;;;4997656;28;20193;-67
2023/04/23 06:17:40;;;;;;;7.97;5.10;;;14.90;99.90;;;;;;5002764;28;20659;-65
2023/04/23 06:20:07;;;;;;;11.80;9.30;;;14.90;99.90;;;;;;5001940;28;20201;-66
2023/04/23 06:22:33;;;;;;;7.90;6.70;;;14.80;99.90;;;;;;5002911;28;20220;-66
2023/04/23 06:24:59;;;;;;;8.40;7.53;;;14.80;99.90;;;;;;5000412;28;20444;-66
2023/04/23 06:27:25;;;;;;;6.13;5.53;;;14.80;99.90;;;;;;5004046;28;20204;-66
2023/04/23 06:29:51;;;;;;;6.47;5.43;;;14.80;99.90;;;;;;5000256;28;20213;-66
2023/04/23 06:32:17;;;;;;;5.90;5.40;;;14.90;99.90;;;;;;5004963;28;20436;-67
2023/04/23 06:34:42;;;;;;;6.03;4.87;;;14.90;99.90;;;;;;5001417;28;20706;-66
2023/04/23 06:37:08;;;;;;;5.00;4.50;;;15.00;99.90;;;;;;5002889;28;20268;-66
2023/04/23 06:39:33;;;;;;;5.93;5.33;;;15.10;99.90;;;;;;5017786;28;20965;-66
2023/04/23 06:41:59;;;;;;;4.47;3.93;;;15.30;99.90;;;;;;5003583;28;20209;-66
2023/04/23 06:44:24;;;;;;;4.80;3.30;;;15.30;99.90;;;;;;5016699;28;20185;-66
2023/04/23 06:46:50;;;;;;;4.47;4.07;;;15.30;99.90;;;;;;5002473;28;20697;-66
2023/04/23 06:49:17;;;;;;;4.30;3.90;;;15.30;99.90;;;;;;4999275;28;20250;-66
2023/04/23 06:51:43;;;;;;;6.93;4.47;;;15.30;99.90;;;;;;4998103;28;20211;-66
2023/04/23 06:54:08;;;;;;;4.20;3.80;;;15.40;99.90;;;;;;5003056;28;20881;-66
2023/04/23 06:56:34;;;;;;;6.00;3.70;;;15.50;99.90;;;;;;5002469;28;20185;-66
2023/04/23 06:59:00;;;;;;;4.00;3.10;;;15.50;99.90;;;;;;4999426;28;20185;-66
2023/04/23 07:01:25;;;;;;;4.70;3.30;;;15.60;99.90;;;;;;5003669;28;20204;-66
2023/04/23 07:03:53;;;;;;;3.33;2.67;;;15.70;99.90;;;;;;5000370;28;20439;-66
2023/04/23 07:06:19;;;;;;;4.80;3.70;;;15.70;99.90;;;;;;5001007;28;20181;-66
2023/04/23 07:08:44;;;;;;;4.10;3.20;;;15.70;99.90;;;;;;5007446;28;20460;-66
2023/04/23 07:11:10;;;;;;;4.07;3.10;;;15.80;99.90;;;;;;4995269;28;20953;-66
2023/04/23 07:13:36;;;;;;;5.10;2.67;;;15.90;99.90;;;;;;5002710;28;20264;-66
2023/04/23 07:16:02;;;;;;;4.20;2.87;;;16.00;99.90;;;;;;4999983;28;20185;-66
2023/04/23 07:18:27;;;;;;;5.40;3.10;;;15.90;99.90;;;;;;5000801;28;20428;-66
2023/04/23 07:20:53;;;;;;;4.80;3.07;;;15.90;99.90;;;;;;5001595;28;20575;-66
2023/04/23 07:23:19;;;;;;;5.20;3.27;;;16.00;99.90;;;;;;4998733;28;20182;-66
2023/04/23 07:25:44;;;;;;;4.00;2.67;;;16.00;99.90;;;;;;4999803;28;20181;-66
2023/04/23 07:28:10;;;;;;;3.17;2.83;;;15.90;99.90;;;;;;5001024;28;20211;-66
2023/04/23 07:30:36;;;;;;;3.00;2.70;;;15.80;99.90;;;;;;4999573;28;20232;-66
2023/04/23 07:33:01;;;;;;;3.20;2.70;;;15.90;99.90;;;;;;5002719;28;20803;-66
2023/04/23 07:35:27;;;;;;;3.00;2.70;;;16.00;99.90;;;;;;4999729;28;20604;-66
2023/04/23 07:37:54;;;;;;;3.17;2.30;;;16.10;99.90;;;;;;4999839;28;20177;-67
2023/04/23 07:40:24;;;;;;;3.73;2.50;;;16.20;99.90;;;;;;4998731;28;20208;-67
2023/04/23 07:42:51;;;;;;;3.83;2.33;;;16.20;99.90;;;;;;5001358;28;20813;-67
2023/04/23 07:45:17;;;;;;;10.10;2.90;;;16.10;99.90;;;;;;5001739;28;20470;-67
2023/04/23 07:47:45;;;;;;;2.80;2.50;;;16.10;99.90;;;;;;5002180;28;20448;-67
2023/04/23 07:50:10;;;;;;;3.47;2.07;;;16.10;99.90;;;;;;5003329;28;20480;-67
2023/04/23 07:52:36;;;;;;;3.37;3.07;;;16.10;99.90;;;;;;5000878;28;21038;-67
2023/04/23 07:55:02;;;;;;;2.80;2.50;;;16.00;99.90;;;;;;5002530;28;20260;-67
2023/04/23 07:57:27;;;;;;;4.60;2.50;;;16.10;99.90;;;;;;5001974;28;20177;-67
2023/04/23 07:59:53;;;;;;;3.10;2.30;;;16.10;99.90;;;;;;5000703;28;21019;-67
2023/04/23 08:02:22;;;;;;;4.60;2.30;;;16.20;99.90;;;;;;5002244;28;20632;-67
2023/04/23 08:04:48;;;;;;;4.17;2.73;;;16.30;99.90;;;;;;4999238;28;20224;-67
2023/04/23 08:07:14;;;;;;;3.77;2.77;;;16.40;99.90;;;;;;5003364;28;20464;-67
2023/04/23 08:09:39;;;;;;;3.23;2.40;;;16.50;99.90;;;;;;5001522;28;20543;-67
2023/04/23 08:12:05;;;;;;;2.50;2.20;;;16.50;99.90;;;;;;5002432;28;20273;-67
2023/04/23 08:14:31;;;;;;;3.10;2.60;;;16.60;99.90;;;;;;5000983;28;20668;-67
2023/04/23 08:16:56;;;;;;;3.80;2.70;;;16.70;99.90;;;;;;5002052;28;20643;-67
2023/04/23 08:19:22;;;;;;;3.50;3.00;;;16.60;99.90;;;;;;5001503;28;20204;-67
2023/04/23 08:21:48;;;;;;;3.07;2.77;;;16.60;99.90;;;;;;5001300;28;20204;-67
2023/04/23 08:24:13;;;;;;;3.80;2.83;;;16.70;99.90;;;;;;5000767;28;20196;-67
2023/04/23 08:26:39;;;;;;;4.73;2.90;;;16.90;99.90;;;;;;5001866;28;20440;-67
2023/04/23 08:29:04;;;;;;;4.37;2.63;;;17.10;99.90;;;;;;5001711;28;20556;-67
2023/04/23 08:31:30;;;;;;;3.17;2.53;;;17.10;99.90;;;;;;4996834;28;20205;-67
2023/04/23 08:33:56;;;;;;;4.50;2.50;;;17.30;99.90;;;;;;5001881;28;20185;-67
2023/04/23 08:36:21;;;;;;;3.00;2.63;;;17.40;99.90;;;;;;5002430;28;20184;-66
2023/04/23 08:38:47;;;;;;;2.60;2.27;;;17.40;99.90;;;;;;4995586;28;20225;-67
2023/04/23 08:41:15;;;;;;;3.40;3.00;;;17.40;99.90;;;;;;4997135;28;20757;-66
2023/04/23 08:43:50;;;;;;;3.40;2.60;;;17.40;99.90;;;;;;5000184;28;20189;-67
2023/04/23 08:46:18;;;;;;;3.17;2.50;;;17.30;99.90;;;;;;4998918;28;20509;-67
2023/04/23 08:48:46;;;;;;;8.30;2.90;;;17.50;99.90;;;;;;5003019;28;20467;-67
2023/04/23 08:51:17;;;;;;;4.70;3.47;;;17.60;99.90;;;;;;4998418;28;20460;-67
2023/04/23 08:53:45;;;;;;;3.60;2.70;;;17.60;99.90;;;;;;5004232;28;21188;-67
2023/04/23 08:56:12;;;;;;;3.00;2.70;;;17.90;99.90;;;;;;5003177;28;20889;-67
2023/04/23 08:58:40;;;;;;;2.97;2.67;;;18.20;99.90;;;;;;4997798;28;20521;-67
2023/04/23 09:01:06;;;;;;;4.30;3.90;;;18.30;99.90;;;;;;5003728;28;20471;-67
2023/04/23 09:03:32;;;;;;;4.00;2.93;;;18.30;99.90;;;;;;5002082;28;20432;-67
2023/04/23 09:05:58;;;;;;;3.73;3.43;;;18.40;99.90;;;;;;5004174;28;20502;-67
2023/04/23 09:08:24;;;;;;;4.70;3.00;;;18.50;99.90;;;;;;5004145;28;20428;-67
2023/04/23 09:10:51;;;;;;;3.47;2.60;;;18.50;99.90;;;;;;5001301;28;20726;-65
2023/04/23 09:13:17;;;;;;;4.63;3.23;;;18.50;99.90;;;;;;5000591;28;20240;-65
2023/04/23 09:15:42;;;;;;;3.30;3.00;;;18.50;99.90;;;;;;5003261;28;20463;-65
2023/04/23 09:18:08;;;;;;;3.63;3.23;;;18.50;99.90;;;;;;5007508;28;20789;-65
2023/04/23 09:20:35;;;;;;;8.33;3.13;;;18.40;99.90;;;;;;5003796;28;20220;-65
2023/04/23 09:23:05;;;;;;;3.53;3.20;;;18.40;99.90;;;;;;5006049;28;20530;-65
2023/04/23 09:25:32;;;;;;;5.80;2.93;;;18.60;99.90;;;;;;5003981;28;20470;-65
2023/04/23 09:28:00;;;;;;;4.10;3.70;;;18.60;99.90;;;;;;5006335;28;20431;-65
2023/04/23 09:30:26;;;;;;;4.17;3.30;;;18.80;99.90;;;;;;5019451;28;20479;-64
2023/04/23 09:32:52;;;;;;;3.60;3.30;;;19.00;99.90;;;;;;5005077;28;20531;-65
2023/04/23 09:35:18;;;;;;;3.50;2.77;;;19.00;99.90;;;;;;5004452;28;20451;-67
2023/04/23 09:37:51;;;;;;;4.13;2.90;;;19.10;99.90;;;;;;5004275;28;20929;-65
2023/04/23 09:40:22;;;;;;;4.27;3.90;;;19.30;99.90;;;;;;5002252;28;20487;-65
2023/04/23 09:42:53;;;;;;;3.80;3.20;;;19.40;99.90;;;;;;4996997;28;20447;-65
2023/04/23 09:45:19;;;;;;;5.00;3.70;;;19.40;99.90;;;;;;5004885;28;21066;-65
2023/04/23 09:47:50;;;;;;;3.43;3.13;;;19.50;99.90;;;;;;5001182;28;20443;-66
2023/04/23 09:50:16;;;;;;;4.70;3.07;;;19.70;99.90;;;;;;5005605;28;20468;-66
2023/04/23 09:52:42;;;;;;;4.07;3.20;;;19.70;99.90;;;;;;5000736;28;20443;-65
2023/04/23 09:55:08;;;;;;;4.60;3.90;;;19.60;99.90;;;;;;5001717;28;20177;-66
2023/04/23 09:57:40;;;;;;;5.10;3.50;;;19.70;99.90;;;;;;5000763;28;20556;-65
2023/04/23 10:00:21;;;;;;;5.50;4.37;;;19.90;99.90;;;;;;5003857;28;20459;-65
2023/04/23 10:02:50;;;;;;;4.67;2.80;;;20.00;99.90;;;;;;5001263;28;20444;-65
2023/04/23 10:05:18;;;;;;;5.30;3.43;;;20.20;99.90;;;;;;4998015;28;20450;-64
2023/04/23 10:07:50;;;;;;;3.70;3.03;;;20.20;99.90;;;;;;5002444;28;20440;-65
2023/04/23 10:10:17;;;;;;;3.20;2.90;;;20.00;99.90;;;;;;5001752;28;20581;-67
2023/04/23 10:12:43;;;;;;;3.23;2.90;;;20.10;99.90;;;;;;4999062;28;20534;-67
2023/04/23 10:15:09;;;;;;;3.40;3.10;;;20.10;99.90;;;;;;5001107;28;20956;-67
2023/04/23 10:17:35;;;;;;;3.93;3.17;;;20.30;99.90;;;;;;5001312;28;20302;-66
2023/04/23 10:20:02;;;;;;;4.00;3.60;;;20.30;99.90;;;;;;4996889;28;21082;-67
2023/04/23 10:22:29;;;;;;;3.47;2.90;;;20.50;99.90;;;;;;4996469;28;20789;-67
2023/04/23 10:25:00;;;;;;;3.10;2.80;;;20.30;99.90;;;;;;5002187;28;20459;-67
2023/04/23 10:27:27;;;;;;;4.47;3.30;;;20.30;99.90;;;;;;5001682;28;20440;-66
2023/04/23 10:29:53;;;;;;;4.50;3.47;;;20.20;99.90;;;;;;5001051;28;20472;-67
2023/04/23 10:32:20;;;;;;;4.77;2.83;;;20.30;99.90;;;;;;5004292;28;20486;-67
2023/04/23 10:34:46;;;;;;;4.60;3.67;;;20.50;99.90;;;;;;5017914;28;20447;-67
2023/04/23 10:37:14;;;;;;;3.00;2.70;;;20.60;99.90;;;;;;5004587;28;20956;-68
2023/04/23 10:39:43;;;;;;;5.07;4.23;;;20.70;99.90;;;;;;5004224;28;20834;-67
2023/04/23 10:42:12;;;;;;;3.10;2.80;;;20.80;99.90;;;;;;5003210;28;20454;-68
2023/04/23 10:44:38;;;;;;;3.90;3.13;;;20.90;99.90;;;;;;5002904;28;20428;-68
2023/04/23 10:47:05;;;;;;;3.43;3.10;;;20.80;99.90;;;;;;5003031;28;20443;-67
2023/04/23 10:49:32;;;;;;;3.53;2.93;;;20.60;99.90;;;;;;5020555;28;20533;-67
2023/04/23 10:52:07;;;;;;;3.00;2.70;;;20.60;99.90;;;;;;5002905;28;20879;-66
2023/04/23 10:54:34;;;;;;;3.03;2.30;;;20.50;99.90;;;;;;5001222;28;20964;-67
2023/04/23 10:57:02;;;;;;;3.07;2.77;;;20.50;99.90;;;;;;5002879;28;20436;-67
2023/04/23 10:59:32;;;;;;;3.37;2.80;;;20.40;99.90;;;;;;5004652;28;20446;-67
2023/04/23 11:02:08;;;;;;;4.63;2.87;;;20.30;99.90;;;;;;5002952;28;20463;-67
2023/04/23 11:04:35;;;;;;;5.70;2.97;;;20.20;99.90;;;;;;5001790;28;20447;-67
2023/04/23 11:07:08;;;;;;;2.83;2.43;;;20.20;99.90;;;;;;5001115;28;20918;-67
2023/04/23 11:09:45;;;;;;;3.40;2.80;;;20.00;99.90;;;;;;5016622;28;20468;-67
2023/04/23 11:12:11;;;;;;;2.80;2.50;;;20.10;99.90;;;;;;5001567;28;20436;-67
2023/04/23 11:14:47;;;;;;;2.60;2.40;;;20.00;99.90;;;;;;5003769;28;20431;-67
2023/04/23 11:17:17;;;;;;;3.07;2.70;;;20.20;99.90;;;;;;5003034;28;20331;-67
2023/04/23 11:20:02;;;;;;;2.90;2.60;;;20.40;99.90;;;;;;5003038;28;20447;-67
2023/04/23 11:22:35;;;;;;;2.50;2.30;;;20.60;99.90;;;;;;5003810;28;20432;-66
2023/04/23 11:25:03;;;;;;;2.70;2.30;;;20.50;99.90;;;;;;5002009;28;21261;-67
2023/04/23 11:27:30;;;;;;;3.63;2.40;;;20.40;99.90;;;;;;4999789;28;20811;-67
2023/04/23 11:29:56;;;;;;;3.63;2.77;;;20.30;99.90;;;;;;5002405;28;20467;-66
2023/04/23 11:32:22;;;;;;;3.47;2.70;;;20.30;99.90;;;;;;5003207;28;20447;-67
2023/04/23 11:34:49;;;;;;;4.40;3.03;;;20.40;99.90;;;;;;5000742;28;20925;-67
2023/04/23 11:37:16;;;;;;;3.50;2.80;;;20.60;99.90;;;;;;5000812;28;20432;-67
2023/04/23 11:39:43;;;;;;;3.23;2.50;;;20.80;99.90;;;;;;5001242;28;20455;-67
2023/04/23 11:42:10;;;;;;;5.07;2.70;;;21.00;99.90;;;;;;5000886;28;20917;-68
2023/04/23 11:44:39;;;;;;;3.17;2.60;;;21.10;99.90;;;;;;5002673;28;20444;-68
2023/04/23 11:47:06;;;;;;;2.80;2.50;;;21.10;99.90;;;;;;5002545;28;20431;-73
2023/04/23 11:49:32;;;;;;;4.00;3.07;;;21.30;99.90;;;;;;5003680;28;20997;-67
2023/04/23 11:52:00;;;;;;;2.90;2.60;;;21.50;99.90;;;;;;4999498;28;20444;-67
2023/04/23 11:54:28;;;;;;;3.33;3.03;;;21.70;99.90;;;;;;5000311;28;20177;-67
2023/04/23 11:56:54;;;;;;;4.70;4.20;;;21.70;99.90;;;;;;4999664;28;20426;-68
2023/04/23 11:59:20;;;;;;;7.03;6.33;;;22.00;99.90;;;;;;5002899;28;20440;-68
2023/04/23 12:01:48;;;;;;;3.27;2.67;;;22.30;99.90;;;;;;5001065;28;20444;-68
2023/04/23 12:04:21;;;;;;;3.70;2.60;;;22.40;99.90;;;;;;5005914;28;20276;-66
2023/04/23 12:06:48;;;;;;;3.17;2.47;;;22.70;99.90;;;;;;4999166;28;21232;-67
2023/04/23 12:09:15;;;;;;;3.37;2.67;;;22.80;99.20;;;;;;5002438;28;20607;-66
2023/04/23 12:11:42;;;;;;;3.77;3.23;;;23.20;99.20;;;;;;5003036;28;20456;-67
2023/04/23 12:14:09;;;;;;;3.63;3.33;;;23.70;98.20;;;;;;5001572;28;20440;-67
2023/04/23 12:16:38;;;;;;;3.90;3.60;;;24.60;97.60;;;;;;5001969;28;20824;-67
2023/04/23 12:19:13;;;;;;;3.97;2.67;;;26.10;96.90;;;;;;5002502;28;20424;-67
2023/04/23 12:21:55;;;;;;;3.67;3.33;;;27.50;93.70;;;;;;5001001;28;20460;-68
2023/04/23 12:24:23;;;;;;;4.73;2.70;;;28.80;90.30;;;;;;5002535;28;20432;-67
2023/04/23 12:26:53;;;;;;;3.43;2.90;;;29.60;81.10;;;;;;5001205;28;20523;-67
2023/04/23 12:29:19;;;;;;;3.03;2.73;;;30.40;75.10;;;;;;4969395;28;1056157;-66
2023/04/23 12:31:45;;;;;;;2.90;2.60;;;31.10;72.50;;;;;;5004482;28;20205;-67
2023/04/23 12:34:16;;;;;;;3.00;2.70;;;31.80;66.10;;;;;;5007058;28;20403;-67
2023/04/23 12:36:45;;;;;;;3.03;2.50;;;32.10;60.60;;;;;;5006319;28;20307;-67
2023/04/23 12:39:26;;;;;;;3.33;2.50;;;32.30;58.30;;;;;;5021962;28;20428;-72
2023/04/23 12:41:56;;;;;;;2.60;2.40;;;31.90;55.70;;;;;;5002692;28;20881;-67